createdAt,value
2019-05-19T00:01:31.785Z,63.59
2019-05-19T00:04:01.463Z,63.83
2019-05-19T00:06:31.139Z,63.93
2019-05-19T00:09:00.873Z,63.96
2019-05-19T00:11:30.573Z,64.22
2019-05-19T00:14:00.260Z,64.33
2019-05-19T00:16:29.945Z,64.72
2019-05-19T00:18:59.638Z,65.02
2019-05-19T00:21:29.373Z,65.06
2019-05-19T00:23:59.863Z,64.84
2019-05-19T00:26:29.913Z,64.92
2019-05-19T00:28:59.505Z,65.28
2019-05-19T00:31:29.218Z,65.53
2019-05-19T00:33:58.706Z,65.77
2019-05-19T00:36:28.328Z,65.88
2019-05-19T00:38:57.920Z,66.09
2019-05-19T00:41:27.519Z,65.97
2019-05-19T00:43:57.250Z,66.16
2019-05-19T00:46:27.009Z,66.52
2019-05-19T00:48:56.657Z,66.77
2019-05-19T00:51:26.539Z,66.76
2019-05-19T00:53:56.333Z,67.26
2019-05-19T00:56:26.661Z,67.09
2019-05-19T00:58:58.080Z,67.82
2019-05-19T01:01:27.730Z,67.91
2019-05-19T01:03:57.441Z,67.75
2019-05-19T01:06:27.060Z,67.41
2019-05-19T01:08:56.725Z,66.61
2019-05-19T01:11:26.320Z,66.90
2019-05-19T01:13:56.048Z,66.77
2019-05-19T01:16:25.680Z,65.57
2019-05-19T01:18:55.303Z,65.75
2019-05-19T01:21:25.616Z,65.98
2019-05-19T01:23:55.374Z,65.91
2019-05-19T01:26:25.000Z,66.26
2019-05-19T01:28:54.723Z,66.76
2019-05-19T01:31:24.499Z,67.26
2019-05-19T01:33:54.389Z,67.81
2019-05-19T01:36:24.091Z,68.21
2019-05-19T01:38:53.683Z,69.03
2019-05-19T01:41:23.470Z,68.80
2019-05-19T01:43:53.313Z,69.00
2019-05-19T01:46:22.947Z,69.25
2019-05-19T01:48:52.622Z,68.74
2019-05-19T01:51:22.399Z,69.03
2019-05-19T01:53:52.044Z,69.39
2019-05-19T01:56:21.689Z,69.56
2019-05-19T01:58:51.516Z,69.62
2019-05-19T02:01:24.156Z,69.86
2019-05-19T02:03:53.892Z,70.27
2019-05-19T02:06:23.545Z,70.29
2019-05-19T02:08:53.347Z,70.42
2019-05-19T02:11:23.097Z,70.64
2019-05-19T02:13:52.842Z,70.45
2019-05-19T02:16:22.446Z,70.62
2019-05-19T02:18:52.142Z,70.56
2019-05-19T02:21:21.792Z,71.00
2019-05-19T02:23:51.511Z,70.91
2019-05-19T02:26:21.314Z,71.23
2019-05-19T02:28:50.969Z,71.46
2019-05-19T02:31:20.878Z,71.59
2019-05-19T02:33:50.444Z,71.85
2019-05-19T02:36:20.182Z,71.97
2019-05-19T02:38:49.893Z,71.97
2019-05-19T02:41:22.033Z,72.05
2019-05-19T02:43:52.389Z,71.77
2019-05-19T02:46:22.701Z,72.00
2019-05-19T02:48:54.337Z,72.06
2019-05-19T02:51:27.013Z,72.44
2019-05-19T02:53:57.302Z,72.67
2019-05-19T02:56:29.551Z,72.71
2019-05-19T02:59:01.220Z,72.37
2019-05-19T03:01:30.995Z,72.14
2019-05-19T03:04:00.784Z,72.28
2019-05-19T03:06:30.523Z,72.15
2019-05-19T03:09:00.190Z,72.15
2019-05-19T03:11:29.782Z,72.20
2019-05-19T03:13:59.417Z,72.46
2019-05-19T03:16:29.203Z,72.22
2019-05-19T03:18:58.799Z,72.69
2019-05-19T03:21:28.566Z,72.67
2019-05-19T03:23:58.285Z,72.13
2019-05-19T03:26:27.913Z,71.82
2019-05-19T03:28:58.051Z,71.90
2019-05-19T03:31:29.449Z,71.99
2019-05-19T03:34:00.498Z,71.88
2019-05-19T03:36:29.513Z,71.99
2019-05-19T03:38:59.359Z,72.07
2019-05-19T03:41:30.163Z,72.12
2019-05-19T03:44:00.477Z,72.16
2019-05-19T03:46:30.600Z,72.08
2019-05-19T03:49:00.602Z,72.10
2019-05-19T03:51:31.970Z,72.22
2019-05-19T03:54:02.621Z,71.67
2019-05-19T03:56:33.138Z,71.84
2019-05-19T03:59:03.552Z,72.17
2019-05-19T04:01:33.672Z,72.45
2019-05-19T04:04:03.959Z,72.63
2019-05-19T04:06:34.150Z,72.99
2019-05-19T04:09:05.703Z,73.34
2019-05-19T04:11:35.968Z,72.99
2019-05-19T04:14:06.294Z,72.88
2019-05-19T04:16:36.298Z,73.00
2019-05-19T04:19:06.301Z,73.31
2019-05-19T04:21:48.054Z,73.50
2019-05-19T04:24:08.641Z,73.74
2019-05-19T04:26:38.823Z,73.47
2019-05-19T04:29:09.087Z,73.65
2019-05-19T04:31:39.364Z,73.80
2019-05-19T04:34:09.559Z,73.62
2019-05-19T04:36:39.626Z,73.48
2019-05-19T04:39:09.802Z,73.25
2019-05-19T04:41:41.109Z,73.29
2019-05-19T04:44:11.337Z,73.23
2019-05-19T04:46:41.434Z,73.41
2019-05-19T04:49:11.706Z,73.66
2019-05-19T04:51:41.877Z,73.65
2019-05-19T04:54:11.876Z,73.86
2019-05-19T04:56:42.057Z,74.25
2019-05-19T04:59:12.399Z,73.88
2019-05-19T05:01:42.748Z,73.93
2019-05-19T05:04:12.856Z,73.79
2019-05-19T05:06:43.141Z,73.71
2019-05-19T05:09:13.518Z,73.09
2019-05-19T05:11:43.682Z,72.92
2019-05-19T05:14:14.122Z,73.14
2019-05-19T05:16:44.155Z,72.44
2019-05-19T05:19:14.128Z,70.96
2019-05-19T05:21:44.163Z,69.86
2019-05-19T05:24:14.156Z,69.23
2019-05-19T05:26:44.188Z,68.48
2019-05-19T05:29:14.196Z,67.70
2019-05-19T05:31:44.485Z,67.25
2019-05-19T05:34:14.814Z,66.72
2019-05-19T05:36:44.966Z,66.49
2019-05-19T05:39:14.961Z,66.25
2019-05-19T05:41:45.104Z,66.27
2019-05-19T05:44:15.555Z,66.00
2019-05-19T05:46:45.983Z,65.75
2019-05-19T05:49:16.371Z,65.87
2019-05-19T05:51:46.428Z,65.52
2019-05-19T05:54:16.603Z,66.62
2019-05-19T05:56:47.815Z,66.95
2019-05-19T05:59:18.183Z,66.89
2019-05-19T06:01:48.539Z,67.20
2019-05-19T06:04:18.809Z,67.35
2019-05-19T06:06:49.080Z,67.72
2019-05-19T06:09:18.130Z,67.75
2019-05-19T06:11:48.204Z,68.34
2019-05-19T06:14:18.295Z,68.13
2019-05-19T06:16:48.581Z,67.86
2019-05-19T06:19:18.651Z,67.97
2019-05-19T06:21:48.824Z,67.87
2019-05-19T06:24:19.094Z,67.93
2019-05-19T06:26:49.211Z,67.90
2019-05-19T06:29:19.536Z,68.59
2019-05-19T06:31:49.832Z,68.74
2019-05-19T06:34:19.927Z,69.43
2019-05-19T06:36:50.172Z,69.40
2019-05-19T06:39:20.493Z,69.37
2019-05-19T06:41:50.615Z,69.30
2019-05-19T06:44:20.673Z,69.48
2019-05-19T06:46:50.951Z,69.70
2019-05-19T06:49:21.165Z,69.43
2019-05-19T06:51:51.357Z,69.42
2019-05-19T06:54:21.632Z,69.18
2019-05-19T06:56:51.777Z,69.63
2019-05-19T06:59:21.973Z,69.85
2019-05-19T07:01:52.358Z,69.59
2019-05-19T07:04:22.525Z,69.25
2019-05-19T07:06:53.082Z,69.58
2019-05-19T07:09:23.383Z,69.62
2019-05-19T07:11:53.867Z,69.34
2019-05-19T07:14:24.142Z,69.37
2019-05-19T07:16:54.466Z,69.59
2019-05-19T07:19:24.568Z,69.97
2019-05-19T07:21:54.804Z,69.24
2019-05-19T07:24:25.210Z,69.86
2019-05-19T07:26:55.457Z,69.34
2019-05-19T07:29:25.711Z,69.29
2019-05-19T07:31:55.829Z,69.66
2019-05-19T07:34:25.978Z,69.08
2019-05-19T07:36:56.013Z,69.47
2019-05-19T07:39:26.360Z,69.45
2019-05-19T07:41:56.472Z,69.38
2019-05-19T07:44:26.836Z,69.91
2019-05-19T07:46:56.944Z,70.73
2019-05-19T07:49:27.103Z,70.13
2019-05-19T07:51:57.435Z,70.45
2019-05-19T07:54:27.500Z,70.67
2019-05-19T07:56:57.716Z,70.70
2019-05-19T07:59:27.807Z,70.78
2019-05-19T08:01:58.063Z,71.42
2019-05-19T08:04:28.156Z,70.98
2019-05-19T08:06:58.104Z,71.12
2019-05-19T08:09:28.448Z,70.55
2019-05-19T08:11:57.694Z,70.37
2019-05-19T08:14:27.850Z,70.50
2019-05-19T08:16:57.832Z,70.57
2019-05-19T08:19:28.256Z,70.62
2019-05-19T08:21:58.617Z,70.66
2019-05-19T08:24:28.740Z,70.85
2019-05-19T08:26:59.072Z,70.86
2019-05-19T08:29:29.381Z,70.74
2019-05-19T08:31:59.611Z,70.40
2019-05-19T08:34:29.999Z,70.81
2019-05-19T08:37:00.069Z,70.87
2019-05-19T08:39:30.142Z,71.31
2019-05-19T08:42:00.385Z,71.28
2019-05-19T08:44:30.650Z,70.78
2019-05-19T08:47:01.254Z,70.31
2019-05-19T08:49:31.645Z,70.15
2019-05-19T08:52:01.845Z,70.59
2019-05-19T08:54:32.115Z,70.08
2019-05-19T08:57:02.196Z,69.51
2019-05-19T08:59:32.162Z,69.07
2019-05-19T09:02:02.478Z,69.16
2019-05-19T09:04:32.744Z,69.10
2019-05-19T09:07:03.141Z,68.61
2019-05-19T09:09:33.437Z,68.41
2019-05-19T09:12:03.695Z,68.19
2019-05-19T09:14:34.062Z,68.14
2019-05-19T09:17:04.385Z,67.97
2019-05-19T09:19:34.651Z,67.70
2019-05-19T09:22:04.885Z,67.76
2019-05-19T09:24:37.259Z,68.03
2019-05-19T09:27:07.047Z,67.85
2019-05-19T09:29:37.263Z,68.37
2019-05-19T09:32:07.741Z,68.60
2019-05-19T09:34:38.085Z,67.81
2019-05-19T09:37:08.182Z,67.53
2019-05-19T09:39:38.169Z,68.03
2019-05-19T09:42:08.439Z,68.28
2019-05-19T09:44:38.652Z,66.64
2019-05-19T09:47:08.831Z,65.97
2019-05-19T09:49:38.996Z,66.47
2019-05-19T09:52:09.675Z,65.99
2019-05-19T09:54:45.132Z,65.45
2019-05-19T09:57:11.859Z,66.27
2019-05-19T09:59:42.249Z,65.56
2019-05-19T10:02:12.384Z,65.24
2019-05-19T10:04:42.398Z,62.91
2019-05-19T10:07:12.765Z,63.49
2019-05-19T10:09:58.673Z,62.70
2019-05-19T10:12:30.205Z,63.31
2019-05-19T10:15:00.655Z,64.15
2019-05-19T10:17:31.161Z,63.67
2019-05-19T10:20:01.292Z,65.14
2019-05-19T10:22:31.643Z,63.40
2019-05-19T10:25:20.230Z,61.22
2019-05-19T10:27:33.875Z,63.45
2019-05-19T10:30:05.530Z,62.55
2019-05-19T10:32:35.527Z,59.85
2019-05-19T10:35:07.532Z,60.79
2019-05-19T10:37:37.891Z,62.25
2019-05-19T10:40:08.640Z,60.29
2019-05-19T10:42:38.876Z,60.80
2019-05-19T10:45:11.596Z,61.11
2019-05-19T10:47:41.809Z,59.68
2019-05-19T10:50:12.387Z,61.03
2019-05-19T10:52:42.497Z,60.60
2019-05-19T10:55:12.770Z,58.47
2019-05-19T10:57:42.991Z,59.43
2019-05-19T11:00:14.857Z,59.47
2019-05-19T11:02:45.128Z,61.26
2019-05-19T11:05:15.629Z,58.21
2019-05-19T11:07:45.764Z,59.66
2019-05-19T11:10:16.351Z,58.13
2019-05-19T11:12:47.058Z,59.01
2019-05-19T11:15:18.835Z,58.86
2019-05-19T11:17:49.123Z,57.58
2019-05-19T11:20:19.284Z,58.86
2019-05-19T11:22:49.627Z,58.13
2019-05-19T11:25:33.014Z,58.64
2019-05-19T11:27:51.125Z,58.97
2019-05-19T11:30:21.237Z,58.27
2019-05-19T11:32:51.473Z,58.01
2019-05-19T11:35:21.895Z,57.17
2019-05-19T11:37:52.246Z,56.99
2019-05-19T11:40:22.677Z,56.52
2019-05-19T11:42:52.897Z,55.42
2019-05-19T11:45:23.242Z,56.55
2019-05-19T11:47:53.354Z,56.21
2019-05-19T11:50:23.669Z,54.73
2019-05-19T11:52:53.954Z,55.44
2019-05-19T11:55:24.351Z,55.18
2019-05-19T11:57:54.752Z,54.50
2019-05-19T12:00:25.048Z,52.07
2019-05-19T12:02:55.352Z,51.81
2019-05-19T12:05:25.816Z,53.87
2019-05-19T12:07:55.929Z,52.12
2019-05-19T12:10:26.065Z,52.21
2019-05-19T12:12:56.425Z,53.90
2019-05-19T12:15:26.758Z,52.44
2019-05-19T12:17:56.998Z,51.39
2019-05-19T12:20:27.333Z,50.43
2019-05-19T12:22:57.502Z,52.19
2019-05-19T12:25:27.902Z,52.78
2019-05-19T12:27:58.179Z,53.14
2019-05-19T12:30:28.239Z,51.66
2019-05-19T12:32:59.403Z,52.64
2019-05-19T12:35:29.602Z,51.31
2019-05-19T12:37:59.808Z,51.37
2019-05-19T12:40:30.175Z,50.73
2019-05-19T12:43:00.400Z,50.32
2019-05-19T12:45:30.707Z,50.69
2019-05-19T12:48:01.052Z,49.72
2019-05-19T12:50:31.411Z,49.65
2019-05-19T12:53:01.635Z,48.57
2019-05-19T12:55:31.896Z,49.19
2019-05-19T12:58:02.349Z,49.25
2019-05-19T13:00:32.523Z,48.51
2019-05-19T13:03:02.893Z,47.69
2019-05-19T13:05:33.152Z,47.49
2019-05-19T13:08:03.384Z,47.55
2019-05-19T13:10:33.478Z,46.08
2019-05-19T13:13:03.589Z,45.94
2019-05-19T13:15:33.783Z,45.25
2019-05-19T13:18:04.098Z,46.32
2019-05-19T13:20:34.373Z,46.06
2019-05-19T13:23:04.681Z,45.59
2019-05-19T13:25:35.011Z,46.91
2019-05-19T13:28:05.242Z,46.88
2019-05-19T13:30:35.473Z,47.09
2019-05-19T13:33:05.687Z,46.19
2019-05-19T13:35:36.008Z,45.68
2019-05-19T13:38:06.375Z,45.84
2019-05-19T13:40:36.600Z,46.45
2019-05-19T13:43:07.186Z,46.19
2019-05-19T13:45:37.423Z,44.33
2019-05-19T13:48:07.526Z,45.58
2019-05-19T13:50:38.575Z,44.82
2019-05-19T13:53:08.902Z,45.04
2019-05-19T13:55:39.282Z,45.07
2019-05-19T13:58:09.467Z,43.65
2019-05-19T14:00:39.567Z,42.95
2019-05-19T14:03:09.804Z,44.09
2019-05-19T14:05:39.986Z,44.25
2019-05-19T14:08:10.277Z,44.62
2019-05-19T14:10:40.717Z,43.64
2019-05-19T14:13:16.625Z,44.14
2019-05-19T14:15:46.952Z,40.61
2019-05-19T14:18:17.183Z,39.07
2019-05-19T14:20:47.460Z,38.16
2019-05-19T14:23:17.729Z,36.32
2019-05-19T14:25:47.976Z,35.90
2019-05-19T14:28:18.153Z,36.73
2019-05-19T14:30:48.366Z,39.04
2019-05-19T14:33:18.653Z,38.62
2019-05-19T14:35:48.913Z,39.79
2019-05-19T14:38:19.125Z,39.20
2019-05-19T14:40:49.241Z,38.20
2019-05-19T14:43:23.680Z,39.08
2019-05-19T14:45:53.977Z,39.44
2019-05-19T14:48:24.124Z,38.80
2019-05-19T14:50:54.565Z,39.79
2019-05-19T14:53:24.850Z,40.87
2019-05-19T14:55:55.153Z,41.02
2019-05-19T14:58:25.322Z,41.50
2019-05-19T15:00:55.458Z,41.24
2019-05-19T15:03:25.475Z,41.52
2019-05-19T15:05:55.516Z,42.55
2019-05-19T15:08:25.452Z,44.02
2019-05-19T15:10:55.556Z,43.45
2019-05-19T15:13:25.747Z,43.72
2019-05-19T15:15:58.008Z,43.12
2019-05-19T15:18:27.828Z,44.05
2019-05-19T15:20:57.955Z,43.72
2019-05-19T15:23:28.380Z,44.46
2019-05-19T15:25:58.430Z,45.29
2019-05-19T15:28:28.683Z,45.18
2019-05-19T15:30:59.005Z,44.83
2019-05-19T15:33:37.057Z,45.39
2019-05-19T15:36:01.094Z,46.00
2019-05-19T15:38:31.521Z,45.77
2019-05-19T15:41:01.817Z,45.44
2019-05-19T15:43:32.072Z,45.67
2019-05-19T15:46:02.330Z,46.30
2019-05-19T15:48:32.470Z,47.13
2019-05-19T15:51:02.707Z,46.84
2019-05-19T15:53:32.982Z,46.68
2019-05-19T15:56:03.289Z,47.08
2019-05-19T15:58:33.414Z,47.36
2019-05-19T16:01:03.911Z,46.35
2019-05-19T16:03:34.083Z,44.26
2019-05-19T16:06:04.292Z,42.45
2019-05-19T16:08:34.296Z,42.79
2019-05-19T16:11:04.522Z,43.66
2019-05-19T16:13:34.728Z,43.96
2019-05-19T16:16:05.289Z,42.13
2019-05-19T16:18:35.525Z,42.57
2019-05-19T16:21:05.897Z,41.70
2019-05-19T16:23:36.031Z,40.25
2019-05-19T16:26:06.109Z,40.03
2019-05-19T16:28:36.319Z,38.79
2019-05-19T16:31:06.428Z,39.01
2019-05-19T16:33:36.575Z,38.67
2019-05-19T16:36:07.996Z,37.81
2019-05-19T16:38:38.477Z,38.69
2019-05-19T16:41:08.724Z,39.60
2019-05-19T16:43:38.905Z,39.68
2019-05-19T16:46:09.304Z,40.26
2019-05-19T16:48:39.424Z,39.42
2019-05-19T16:51:09.618Z,38.04
2019-05-19T16:53:39.664Z,38.12
2019-05-19T16:56:09.778Z,37.99
2019-05-19T16:58:45.197Z,37.72
2019-05-19T17:01:11.926Z,36.63
2019-05-19T17:03:42.113Z,36.81
2019-05-19T17:06:12.276Z,36.19
2019-05-19T17:08:42.404Z,35.27
2019-05-19T17:11:18.311Z,35.39
2019-05-19T17:13:44.079Z,36.45
2019-05-19T17:16:14.153Z,37.15
2019-05-19T17:18:44.088Z,37.51
2019-05-19T17:21:14.255Z,37.34
2019-05-19T17:23:44.491Z,37.34
2019-05-19T17:26:14.490Z,36.97
2019-05-19T17:28:57.620Z,37.78
2019-05-19T17:31:16.391Z,37.53
2019-05-19T17:33:46.518Z,38.59
2019-05-19T17:36:16.715Z,39.14
2019-05-19T17:38:47.020Z,40.89
2019-05-19T17:41:17.095Z,42.41
2019-05-19T17:43:47.367Z,43.20
2019-05-19T17:46:17.592Z,43.74
2019-05-19T17:48:47.812Z,45.06
2019-05-19T17:51:18.101Z,46.23
2019-05-19T17:53:48.327Z,47.55
2019-05-19T17:56:19.123Z,48.84
2019-05-19T17:58:49.652Z,50.46
2019-05-19T18:01:20.031Z,52.10
2019-05-19T18:03:51.342Z,52.81
2019-05-19T18:06:21.568Z,53.61
2019-05-19T18:08:51.867Z,54.28
2019-05-19T18:11:22.127Z,55.45
2019-05-19T18:13:52.450Z,55.13
2019-05-19T18:16:22.671Z,55.52
2019-05-19T18:18:52.733Z,55.78
2019-05-19T18:21:23.027Z,56.40
2019-05-19T18:23:53.303Z,56.43
2019-05-19T18:26:23.614Z,56.75
2019-05-19T18:28:53.927Z,56.77
2019-05-19T18:31:24.065Z,56.53
2019-05-19T18:33:54.216Z,57.11
2019-05-19T18:36:24.581Z,57.53
2019-05-19T18:38:54.708Z,57.04
2019-05-19T18:41:25.140Z,57.43
2019-05-19T18:43:55.482Z,58.11
2019-05-19T18:46:25.847Z,58.65
2019-05-19T18:48:56.262Z,58.87
2019-05-19T18:51:26.532Z,59.15
2019-05-19T18:53:56.933Z,59.54
2019-05-19T18:56:27.233Z,60.01
2019-05-19T18:58:57.401Z,60.85
2019-05-19T19:01:27.680Z,61.25
2019-05-19T19:03:58.025Z,61.82
2019-05-19T19:06:31.273Z,62.13
2019-05-19T19:09:01.520Z,62.37
2019-05-19T19:11:31.741Z,62.84
2019-05-19T19:14:02.208Z,62.97
2019-05-19T19:16:32.494Z,63.32
2019-05-19T19:19:02.961Z,63.28
2019-05-19T19:21:33.261Z,63.67
2019-05-19T19:24:03.542Z,64.09
2019-05-19T19:26:33.617Z,64.17
2019-05-19T19:29:04.092Z,63.99
2019-05-19T19:31:47.703Z,64.56
2019-05-19T19:34:06.006Z,64.66
2019-05-19T19:36:36.378Z,64.79
2019-05-19T19:39:07.643Z,65.11
2019-05-19T19:41:38.009Z,65.76
2019-05-19T19:44:08.210Z,65.92
2019-05-19T19:46:38.190Z,66.43
2019-05-19T19:49:08.056Z,66.94
2019-05-19T19:51:37.705Z,67.49
2019-05-19T19:54:07.343Z,67.56
2019-05-19T19:56:37.119Z,67.32
2019-05-19T19:59:07.177Z,67.09
2019-05-19T20:01:36.812Z,67.32
2019-05-19T20:04:06.484Z,67.51
2019-05-19T20:06:36.060Z,68.00
2019-05-19T20:09:07.666Z,68.00
2019-05-19T20:11:37.239Z,68.85
2019-05-19T20:14:07.057Z,69.16
2019-05-19T20:16:36.717Z,69.00
2019-05-19T20:19:06.392Z,69.24
2019-05-19T20:21:36.082Z,70.45
2019-05-19T20:24:05.737Z,70.18
2019-05-19T20:26:35.426Z,70.21
2019-05-19T20:29:05.011Z,70.17
2019-05-19T20:31:34.596Z,69.87
2019-05-19T20:34:04.395Z,69.90
2019-05-19T20:36:34.078Z,69.22
2019-05-19T20:39:04.994Z,69.24
2019-05-19T20:41:34.570Z,70.25
2019-05-19T20:44:04.771Z,71.14
2019-05-19T20:46:34.531Z,70.84
2019-05-19T20:49:04.339Z,70.80
2019-05-19T20:51:34.033Z,70.48
2019-05-19T20:54:03.762Z,71.22
2019-05-19T20:56:33.371Z,70.23
2019-05-19T20:59:03.060Z,69.88
2019-05-19T21:01:32.689Z,69.83
2019-05-19T21:04:02.391Z,71.18
2019-05-19T21:06:32.097Z,70.25
2019-05-19T21:09:01.681Z,70.57
2019-05-19T21:11:31.280Z,70.41
2019-05-19T21:14:00.922Z,70.20
2019-05-19T21:16:30.521Z,70.15
2019-05-19T21:19:00.322Z,70.55
2019-05-19T21:21:30.043Z,70.90
2019-05-19T21:23:59.676Z,70.98
2019-05-19T21:26:29.285Z,71.23
2019-05-19T21:28:58.991Z,71.22
2019-05-19T21:31:28.691Z,71.13
2019-05-19T21:33:58.300Z,70.93
2019-05-19T21:36:27.989Z,71.27
2019-05-19T21:38:57.566Z,71.36
2019-05-19T21:41:27.317Z,71.43
2019-05-19T21:43:56.949Z,71.59
2019-05-19T21:46:26.589Z,71.50
2019-05-19T21:48:56.302Z,71.56
2019-05-19T21:51:25.876Z,71.37
2019-05-19T21:53:55.418Z,71.16
2019-05-19T21:56:25.159Z,70.97
2019-05-19T21:58:54.908Z,71.01
2019-05-19T22:01:24.437Z,70.91
2019-05-19T22:03:54.032Z,71.01
2019-05-19T22:06:25.358Z,70.83
2019-05-19T22:08:55.130Z,70.77
2019-05-19T22:11:24.719Z,70.58
2019-05-19T22:13:54.341Z,70.40
2019-05-19T22:16:24.088Z,70.35
2019-05-19T22:18:53.803Z,70.23
2019-05-19T22:21:23.427Z,69.97
2019-05-19T22:23:53.081Z,70.03
2019-05-19T22:26:23.314Z,70.06
2019-05-19T22:28:52.996Z,70.04
2019-05-19T22:31:36.031Z,70.02
2019-05-19T22:33:53.968Z,70.02
2019-05-19T22:36:23.615Z,70.27
2019-05-19T22:38:53.338Z,70.24
2019-05-19T22:41:22.997Z,69.96
2019-05-19T22:43:53.124Z,70.02
2019-05-19T22:46:22.855Z,70.04
2019-05-19T22:48:52.541Z,69.97
2019-05-19T22:51:22.883Z,70.04
2019-05-19T22:53:52.874Z,69.92
2019-05-19T22:56:22.599Z,70.05
2019-05-19T22:58:52.330Z,69.90
2019-05-19T23:01:22.006Z,69.92
2019-05-19T23:03:51.704Z,70.02
2019-05-19T23:06:21.377Z,70.08
2019-05-19T23:08:51.120Z,70.32
2019-05-19T23:11:20.757Z,70.61
2019-05-19T23:13:50.572Z,71.24
2019-05-19T23:16:20.336Z,71.03
2019-05-19T23:18:50.158Z,71.50
2019-05-19T23:21:19.924Z,71.05
2019-05-19T23:23:49.504Z,70.82
2019-05-19T23:26:19.136Z,70.90
2019-05-19T23:28:48.692Z,70.88
2019-05-19T23:31:18.360Z,71.04
2019-05-19T23:33:48.016Z,71.04
2019-05-19T23:36:17.609Z,71.06
2019-05-19T23:38:47.298Z,71.14
2019-05-19T23:41:16.968Z,71.20
2019-05-19T23:43:46.577Z,71.35
2019-05-19T23:46:16.342Z,71.49
2019-05-19T23:48:45.903Z,71.56
2019-05-19T23:51:15.573Z,71.37
2019-05-19T23:53:45.340Z,71.58
2019-05-19T23:56:15.124Z,71.61
2019-05-19T23:58:44.771Z,71.82
